sensor_id;sensor_type;location;lat;lon;timestamp;pressure;altitude;pressure_sealevel;temperature;humidity
12178;BME280;6152;48.728;9.256;2023-08-20T00:00:31;97428.19;;;22.35;100.00
12178;BME280;6152;48.728;9.256;2023-08-20T00:03:10;97424.88;;;22.33;100.00
12178;BME280;6152;48.728;9.256;2023-08-20T00:05:38;97420.88;;;22.29;100.00
12178;BME280;6152;48.728;9.256;2023-08-20T00:08:05;97423.00;;;22.26;100.00
12178;BME280;6152;48.728;9.256;2023-08-20T00:10:31;97422.47;;;22.22;100.00
12178;BME280;6152;48.728;9.256;2023-08-20T00:12:58;97427.13;;;22.20;100.00
12178;BME280;6152;48.728;9.256;2023-08-20T00:15:24;97431.72;;;22.18;100.00
12178;BME280;6152;48.728;9.256;2023-08-20T00:17:54;97436.38;;;22.16;100.00
12178;BME280;6152;48.728;9.256;2023-08-20T00:20:21;97437.34;;;22.15;100.00
12178;BME280;6152;48.728;9.256;2023-08-20T00:22:48;97428.44;;;22.16;100.00
12178;BME280;6152;48.728;9.256;2023-08-20T00:25:15;97432.06;;;22.15;100.00
12178;BME280;6152;48.728;9.256;2023-08-20T00:27:43;97440.84;;;22.15;100.00
12178;BME280;6152;48.728;9.256;2023-08-20T00:30:10;97433.72;;;22.16;100.00
12178;BME280;6152;48.728;9.256;2023-08-20T00:32:36;97438.03;;;22.17;100.00
12178;BME280;6152;48.728;9.256;2023-08-20T00:35:03;97439.88;;;22.17;100.00
12178;BME280;6152;48.728;9.256;2023-08-20T00:37:30;97434.38;;;22.18;100.00
12178;BME280;6152;48.728;9.256;2023-08-20T00:39:56;97437.03;;;22.18;100.00
12178;BME280;6152;48.728;9.256;2023-08-20T00:42:25;97442.34;;;22.18;100.00
12178;BME280;6152;48.728;9.256;2023-08-20T00:44:55;97441.38;;;22.19;100.00
12178;BME280;6152;48.728;9.256;2023-08-20T00:47:21;97439.88;;;22.17;100.00
12178;BME280;6152;48.728;9.256;2023-08-20T00:49:48;97440.00;;;22.15;100.00
12178;BME280;6152;48.728;9.256;2023-08-20T00:52:17;97444.66;;;22.13;100.00
12178;BME280;6152;48.728;9.256;2023-08-20T00:54:45;97451.06;;;22.10;100.00
12178;BME280;6152;48.728;9.256;2023-08-20T00:57:14;97457.53;;;22.08;100.00
12178;BME280;6152;48.728;9.256;2023-08-20T00:59:41;97461.16;;;22.07;100.00
12178;BME280;6152;48.728;9.256;2023-08-20T01:02:07;97445.56;;;22.04;100.00
12178;BME280;6152;48.728;9.256;2023-08-20T01:04:34;97440.56;;;22.01;100.00
12178;BME280;6152;48.728;9.256;2023-08-20T01:07:26;97446.19;;;21.98;100.00
12178;BME280;6152;48.728;9.256;2023-08-20T01:12:32;97435.91;;;21.95;100.00
12178;BME280;6152;48.728;9.256;2023-08-20T01:15:00;97441.53;;;21.92;100.00
12178;BME280;6152;48.728;9.256;2023-08-20T01:17:26;97449.75;;;21.89;100.00
12178;BME280;6152;48.728;9.256;2023-08-20T01:19:52;97452.41;;;21.89;100.00
12178;BME280;6152;48.728;9.256;2023-08-20T01:25:22;97452.84;;;21.84;100.00
12178;BME280;6152;48.728;9.256;2023-08-20T01:30:56;97453.31;;;21.80;100.00
12178;BME280;6152;48.728;9.256;2023-08-20T01:33:23;97455.31;;;21.78;100.00
12178;BME280;6152;48.728;9.256;2023-08-20T01:35:52;97451.94;;;21.76;100.00
12178;BME280;6152;48.728;9.256;2023-08-20T01:38:19;97449.31;;;21.76;100.00
12178;BME280;6152;48.728;9.256;2023-08-20T01:40:45;97458.25;;;21.75;100.00
12178;BME280;6152;48.728;9.256;2023-08-20T01:43:12;97454.06;;;21.72;100.00
12178;BME280;6152;48.728;9.256;2023-08-20T01:45:38;97461.22;;;21.72;100.00
12178;BME280;6152;48.728;9.256;2023-08-20T01:48:04;97463.88;;;21.72;100.00
12178;BME280;6152;48.728;9.256;2023-08-20T01:50:31;97459.53;;;21.71;100.00
12178;BME280;6152;48.728;9.256;2023-08-20T01:52:57;97458.03;;;21.68;100.00
12178;BME280;6152;48.728;9.256;2023-08-20T01:55:23;97460.16;;;21.64;100.00
12178;BME280;6152;48.728;9.256;2023-08-20T01:57:49;97457.81;;;21.61;100.00
12178;BME280;6152;48.728;9.256;2023-08-20T02:00:15;97460.91;;;21.57;100.00
12178;BME280;6152;48.728;9.256;2023-08-20T02:02:42;97464.72;;;21.54;100.00
12178;BME280;6152;48.728;9.256;2023-08-20T02:05:08;97465.84;;;21.52;100.00
12178;BME280;6152;48.728;9.256;2023-08-20T02:07:36;97463.66;;;21.47;100.00
12178;BME280;6152;48.728;9.256;2023-08-20T02:10:02;97461.16;;;21.46;100.00
12178;BME280;6152;48.728;9.256;2023-08-20T02:12:29;97468.44;;;21.44;100.00
12178;BME280;6152;48.728;9.256;2023-08-20T02:14:55;97468.03;;;21.39;100.00
12178;BME280;6152;48.728;9.256;2023-08-20T02:17:21;97466.53;;;21.36;100.00
12178;BME280;6152;48.728;9.256;2023-08-20T02:19:47;97462.50;;;21.32;100.00
12178;BME280;6152;48.728;9.256;2023-08-20T02:22:13;97467.13;;;21.30;100.00
12178;BME280;6152;48.728;9.256;2023-08-20T02:24:40;97463.78;;;21.28;100.00
12178;BME280;6152;48.728;9.256;2023-08-20T02:27:06;97467.59;;;21.26;100.00
12178;BME280;6152;48.728;9.256;2023-08-20T02:29:32;97471.38;;;21.23;100.00
12178;BME280;6152;48.728;9.256;2023-08-20T02:31:58;97472.34;;;21.22;100.00
12178;BME280;6152;48.728;9.256;2023-08-20T02:34:24;97464.72;;;21.19;100.00
12178;BME280;6152;48.728;9.256;2023-08-20T02:36:50;97466.13;;;21.13;100.00
12178;BME280;6152;48.728;9.256;2023-08-20T02:39:17;97465.44;;;21.11;100.00
12178;BME280;6152;48.728;9.256;2023-08-20T02:41:43;97459.44;;;21.09;100.00
12178;BME280;6152;48.728;9.256;2023-08-20T02:44:09;97464.22;;;21.06;100.00
12178;BME280;6152;48.728;9.256;2023-08-20T02:46:35;97466.16;;;21.04;100.00
12178;BME280;6152;48.728;9.256;2023-08-20T02:49:04;97468.44;;;20.99;100.00
12178;BME280;6152;48.728;9.256;2023-08-20T02:51:30;97468.56;;;20.97;100.00
12178;BME280;6152;48.728;9.256;2023-08-20T02:53:56;97460.09;;;20.94;100.00
12178;BME280;6152;48.728;9.256;2023-08-20T02:56:22;97467.66;;;20.89;100.00
12178;BME280;6152;48.728;9.256;2023-08-20T02:58:48;97458.34;;;20.85;100.00
12178;BME280;6152;48.728;9.256;2023-08-20T03:01:21;97466.28;;;20.85;100.00
12178;BME280;6152;48.728;9.256;2023-08-20T03:03:48;97468.22;;;20.83;100.00
12178;BME280;6152;48.728;9.256;2023-08-20T03:06:14;97457.66;;;20.83;100.00
12178;BME280;6152;48.728;9.256;2023-08-20T03:08:40;97459.63;;;20.81;100.00
12178;BME280;6152;48.728;9.256;2023-08-20T03:11:06;97458.78;;;20.80;100.00
12178;BME280;6152;48.728;9.256;2023-08-20T03:13:32;97456.31;;;20.79;100.00
12178;BME280;6152;48.728;9.256;2023-08-20T03:15:58;97445.72;;;20.79;100.00
12178;BME280;6152;48.728;9.256;2023-08-20T03:18:25;97442.38;;;20.77;100.00
12178;BME280;6152;48.728;9.256;2023-08-20T03:20:51;97449.63;;;20.75;100.00
12178;BME280;6152;48.728;9.256;2023-08-20T03:23:17;97446.81;;;20.76;100.00
12178;BME280;6152;48.728;9.256;2023-08-20T03:25:43;97449.41;;;20.68;100.00
12178;BME280;6152;48.728;9.256;2023-08-20T03:28:09;97445.22;;;20.65;100.00
12178;BME280;6152;48.728;9.256;2023-08-20T03:30:36;97450.78;;;20.62;100.00
12178;BME280;6152;48.728;9.256;2023-08-20T03:33:03;97445.50;;;20.62;100.00
12178;BME280;6152;48.728;9.256;2023-08-20T03:35:29;97446.78;;;20.58;100.00
12178;BME280;6152;48.728;9.256;2023-08-20T03:37:55;97450.00;;;20.52;100.00
12178;BME280;6152;48.728;9.256;2023-08-20T03:40:21;97459.91;;;20.50;100.00
12178;BME280;6152;48.728;9.256;2023-08-20T03:42:47;97456.56;;;20.48;100.00
12178;BME280;6152;48.728;9.256;2023-08-20T03:45:13;97459.50;;;20.45;100.00
12178;BME280;6152;48.728;9.256;2023-08-20T03:47:40;97468.44;;;20.44;100.00
12178;BME280;6152;48.728;9.256;2023-08-20T03:50:08;97463.16;;;20.44;100.00
12178;BME280;6152;48.728;9.256;2023-08-20T03:52:34;97458.13;;;20.41;100.00
12178;BME280;6152;48.728;9.256;2023-08-20T03:55:00;97458.13;;;20.41;100.00
12178;BME280;6152;48.728;9.256;2023-08-20T03:57:26;97454.81;;;20.39;100.00
12178;BME280;6152;48.728;9.256;2023-08-20T03:59:52;97451.75;;;20.34;100.00
12178;BME280;6152;48.728;9.256;2023-08-20T04:02:19;97445.13;;;20.30;100.00
12178;BME280;6152;48.728;9.256;2023-08-20T04:04:45;97443.81;;;20.25;100.00
12178;BME280;6152;48.728;9.256;2023-08-20T04:07:11;97442.31;;;20.22;100.00
12178;BME280;6152;48.728;9.256;2023-08-20T04:09:37;97444.28;;;20.20;100.00
12178;BME280;6152;48.728;9.256;2023-08-20T04:12:04;97452.63;;;20.15;100.00
12178;BME280;6152;48.728;9.256;2023-08-20T04:14:30;97452.09;;;20.12;100.00
12178;BME280;6152;48.728;9.256;2023-08-20T04:16:57;97458.63;;;20.08;100.00
12178;BME280;6152;48.728;9.256;2023-08-20T04:19:23;97464.88;;;20.07;100.00
12178;BME280;6152;48.728;9.256;2023-08-20T04:21:49;97464.22;;;20.05;100.00
12178;BME280;6152;48.728;9.256;2023-08-20T04:24:16;97467.13;;;20.02;100.00
12178;BME280;6152;48.728;9.256;2023-08-20T04:26:42;97474.34;;;20.00;100.00
12178;BME280;6152;48.728;9.256;2023-08-20T04:29:09;97465.75;;;19.98;100.00
12178;BME280;6152;48.728;9.256;2023-08-20T04:31:35;97469.22;;;19.98;100.00
12178;BME280;6152;48.728;9.256;2023-08-20T04:34:01;97470.34;;;19.96;100.00
12178;BME280;6152;48.728;9.256;2023-08-20T04:36:28;97453.50;;;19.97;100.00
12178;BME280;6152;48.728;9.256;2023-08-20T04:38:54;97461.44;;;19.97;100.00
12178;BME280;6152;48.728;9.256;2023-08-20T04:41:20;97457.00;;;19.97;100.00
12178;BME280;6152;48.728;9.256;2023-08-20T04:43:46;97462.28;;;19.97;100.00
12178;BME280;6152;48.728;9.256;2023-08-20T04:46:12;97468.41;;;19.98;100.00
12178;BME280;6152;48.728;9.256;2023-08-20T04:48:38;97469.06;;;20.00;100.00
12178;BME280;6152;48.728;9.256;2023-08-20T04:51:05;97472.44;;;20.02;100.00
12178;BME280;6152;48.728;9.256;2023-08-20T04:53:32;97477.41;;;20.05;100.00
12178;BME280;6152;48.728;9.256;2023-08-20T04:55:59;97482.72;;;20.05;100.00
12178;BME280;6152;48.728;9.256;2023-08-20T04:58:25;97483.25;;;20.08;100.00
12178;BME280;6152;48.728;9.256;2023-08-20T05:00:51;97485.22;;;20.06;100.00
12178;BME280;6152;48.728;9.256;2023-08-20T05:03:18;97486.03;;;20.07;100.00
12178;BME280;6152;48.728;9.256;2023-08-20T05:05:49;97488.38;;;20.10;100.00
12178;BME280;6152;48.728;9.256;2023-08-20T05:08:15;97493.53;;;20.11;100.00
12178;BME280;6152;48.728;9.256;2023-08-20T05:10:41;97491.56;;;20.13;100.00
12178;BME280;6152;48.728;9.256;2023-08-20T05:13:08;97488.66;;;20.16;100.00
12178;BME280;6152;48.728;9.256;2023-08-20T05:15:34;97493.78;;;20.18;100.00
12178;BME280;6152;48.728;9.256;2023-08-20T05:18:00;97492.66;;;20.21;100.00
12178;BME280;6152;48.728;9.256;2023-08-20T05:20:26;97501.59;;;20.29;100.00
12178;BME280;6152;48.728;9.256;2023-08-20T05:22:52;97501.31;;;20.32;100.00
12178;BME280;6152;48.728;9.256;2023-08-20T05:25:18;97493.78;;;20.37;100.00
12178;BME280;6152;48.728;9.256;2023-08-20T05:27:44;97485.41;;;20.42;100.00
12178;BME280;6152;48.728;9.256;2023-08-20T05:30:11;97480.38;;;20.48;100.00
12178;BME280;6152;48.728;9.256;2023-08-20T05:32:37;97472.84;;;20.53;100.00
12178;BME280;6152;48.728;9.256;2023-08-20T05:35:03;97473.50;;;20.55;100.00
12178;BME280;6152;48.728;9.256;2023-08-20T05:37:30;97467.94;;;20.58;100.00
12178;BME280;6152;48.728;9.256;2023-08-20T05:39:56;97467.66;;;20.61;100.00
12178;BME280;6152;48.728;9.256;2023-08-20T05:42:22;97475.00;;;20.67;100.00
12178;BME280;6152;48.728;9.256;2023-08-20T05:44:48;97486.97;;;20.72;100.00
12178;BME280;6152;48.728;9.256;2023-08-20T05:47:14;97494.59;;;20.75;100.00
12178;BME280;6152;48.728;9.256;2023-08-20T05:49:40;97498.63;;;20.79;100.00
12178;BME280;6152;48.728;9.256;2023-08-20T05:52:06;97493.72;;;20.84;100.00
12178;BME280;6152;48.728;9.256;2023-08-20T05:54:32;97500.38;;;20.88;100.00
12178;BME280;6152;48.728;9.256;2023-08-20T05:56:58;97506.88;;;20.93;100.00
12178;BME280;6152;48.728;9.256;2023-08-20T05:59:25;97514.94;;;21.01;100.00
12178;BME280;6152;48.728;9.256;2023-08-20T06:01:52;97508.91;;;21.09;100.00
12178;BME280;6152;48.728;9.256;2023-08-20T06:04:18;97510.00;;;21.16;100.00
12178;BME280;6152;48.728;9.256;2023-08-20T06:06:45;97516.38;;;21.23;100.00
12178;BME280;6152;48.728;9.256;2023-08-20T06:09:11;97516.75;;;21.28;100.00
12178;BME280;6152;48.728;9.256;2023-08-20T06:11:37;97518.66;;;21.36;100.00
12178;BME280;6152;48.728;9.256;2023-08-20T06:14:03;97518.88;;;21.42;100.00
12178;BME280;6152;48.728;9.256;2023-08-20T06:16:30;97508.69;;;21.47;100.00
12178;BME280;6152;48.728;9.256;2023-08-20T06:18:57;97506.78;;;21.57;100.00
12178;BME280;6152;48.728;9.256;2023-08-20T06:21:23;97516.16;;;21.70;100.00
12178;BME280;6152;48.728;9.256;2023-08-20T06:23:49;97519.88;;;21.77;100.00
12178;BME280;6152;48.728;9.256;2023-08-20T06:26:15;97524.66;;;21.91;100.00
12178;BME280;6152;48.728;9.256;2023-08-20T06:28:41;97515.78;;;22.00;100.00
12178;BME280;6152;48.728;9.256;2023-08-20T06:31:07;97519.69;;;22.13;100.00
12178;BME280;6152;48.728;9.256;2023-08-20T06:33:34;97521.63;;;22.29;100.00
12178;BME280;6152;48.728;9.256;2023-08-20T06:36:00;97523.22;;;22.48;100.00
12178;BME280;6152;48.728;9.256;2023-08-20T06:38:26;97520.69;;;22.64;100.00
12178;BME280;6152;48.728;9.256;2023-08-20T06:40:52;97515.34;;;22.82;100.00
12178;BME280;6152;48.728;9.256;2023-08-20T06:43:19;97520.84;;;22.96;100.00
12178;BME280;6152;48.728;9.256;2023-08-20T06:45:45;97529.06;;;23.11;100.00
12178;BME280;6152;48.728;9.256;2023-08-20T06:48:11;97531.38;;;23.14;100.00
12178;BME280;6152;48.728;9.256;2023-08-20T06:50:37;97533.25;;;23.22;100.00
12178;BME280;6152;48.728;9.256;2023-08-20T06:53:03;97533.09;;;23.31;100.00
12178;BME280;6152;48.728;9.256;2023-08-20T06:55:31;97526.84;;;23.40;100.00
12178;BME280;6152;48.728;9.256;2023-08-20T06:57:57;97524.88;;;23.50;100.00
12178;BME280;6152;48.728;9.256;2023-08-20T07:00:23;97532.38;;;23.63;100.00
12178;BME280;6152;48.728;9.256;2023-08-20T07:02:49;97528.91;;;23.71;100.00
12178;BME280;6152;48.728;9.256;2023-08-20T07:05:15;97524.94;;;23.75;100.00
12178;BME280;6152;48.728;9.256;2023-08-20T07:07:41;97535.91;;;23.88;100.00
12178;BME280;6152;48.728;9.256;2023-08-20T07:10:08;97535.38;;;24.00;100.00
12178;BME280;6152;48.728;9.256;2023-08-20T07:12:34;97543.88;;;24.12;100.00
12178;BME280;6152;48.728;9.256;2023-08-20T07:15:00;97541.41;;;24.27;100.00
12178;BME280;6152;48.728;9.256;2023-08-20T07:17:26;97543.88;;;24.44;100.00
12178;BME280;6152;48.728;9.256;2023-08-20T07:19:52;97549.16;;;24.60;100.00
12178;BME280;6152;48.728;9.256;2023-08-20T07:22:18;97541.63;;;24.80;100.00
12178;BME280;6152;48.728;9.256;2023-08-20T07:24:44;97544.28;;;24.80;100.00
12178;BME280;6152;48.728;9.256;2023-08-20T07:27:10;97551.47;;;24.88;100.00
12178;BME280;6152;48.728;9.256;2023-08-20T07:29:38;97552.13;;;24.82;100.00
12178;BME280;6152;48.728;9.256;2023-08-20T07:32:04;97551.47;;;24.88;100.00
12178;BME280;6152;48.728;9.256;2023-08-20T07:34:31;97554.78;;;24.90;100.00
12178;BME280;6152;48.728;9.256;2023-08-20T07:36:59;97556.22;;;25.00;100.00
12178;BME280;6152;48.728;9.256;2023-08-20T07:39:25;97564.34;;;25.15;100.00
12178;BME280;6152;48.728;9.256;2023-08-20T07:41:51;97566.31;;;25.21;100.00
12178;BME280;6152;48.728;9.256;2023-08-20T07:44:18;97573.75;;;25.34;100.00
12178;BME280;6152;48.728;9.256;2023-08-20T07:46:44;97565.69;;;25.50;100.00
12178;BME280;6152;48.728;9.256;2023-08-20T07:49:10;97566.16;;;25.61;100.00
12178;BME280;6152;48.728;9.256;2023-08-20T07:51:36;97574.88;;;25.78;100.00
12178;BME280;6152;48.728;9.256;2023-08-20T07:54:02;97573.28;;;25.92;100.00
12178;BME280;6152;48.728;9.256;2023-08-20T07:56:28;97570.13;;;26.11;100.00
12178;BME280;6152;48.728;9.256;2023-08-20T07:58:55;97576.59;;;26.39;100.00
12178;BME280;6152;48.728;9.256;2023-08-20T08:01:21;97578.31;;;26.70;100.00
12178;BME280;6152;48.728;9.256;2023-08-20T08:03:48;97578.38;;;26.99;100.00
12178;BME280;6152;48.728;9.256;2023-08-20T08:06:15;97577.03;;;27.24;100.00
12178;BME280;6152;48.728;9.256;2023-08-20T08:08:43;97576.13;;;27.46;100.00
12178;BME280;6152;48.728;9.256;2023-08-20T08:11:12;97573.72;;;27.51;100.00
12178;BME280;6152;48.728;9.256;2023-08-20T08:13:38;97584.97;;;27.62;100.00
12178;BME280;6152;48.728;9.256;2023-08-20T08:16:04;97572.94;;;27.72;100.00
12178;BME280;6152;48.728;9.256;2023-08-20T08:18:30;97572.88;;;27.87;100.00
12178;BME280;6152;48.728;9.256;2023-08-20T08:20:57;97580.19;;;28.14;100.00
12178;BME280;6152;48.728;9.256;2023-08-20T08:23:23;97589.81;;;28.30;100.00
12178;BME280;6152;48.728;9.256;2023-08-20T08:25:49;97587.81;;;28.38;100.00
12178;BME280;6152;48.728;9.256;2023-08-20T08:28:15;97597.06;;;28.57;100.00
12178;BME280;6152;48.728;9.256;2023-08-20T08:30:41;97581.63;;;28.87;100.00
12178;BME280;6152;48.728;9.256;2023-08-20T08:33:07;97580.59;;;29.22;100.00
12178;BME280;6152;48.728;9.256;2023-08-20T08:35:33;97583.50;;;29.62;100.00
12178;BME280;6152;48.728;9.256;2023-08-20T08:38:00;97579.69;;;29.90;100.00
12178;BME280;6152;48.728;9.256;2023-08-20T08:40:29;97580.53;;;30.11;100.00
12178;BME280;6152;48.728;9.256;2023-08-20T08:42:56;97578.06;;;30.16;100.00
12178;BME280;6152;48.728;9.256;2023-08-20T08:45:22;97588.06;;;30.54;100.00
12178;BME280;6152;48.728;9.256;2023-08-20T08:47:49;97577.72;;;31.99;92.92
12178;BME280;6152;48.728;9.256;2023-08-20T08:50:16;97571.84;;;32.90;86.78
12178;BME280;6152;48.728;9.256;2023-08-20T08:52:45;97570.72;;;33.40;82.26
12178;BME280;6152;48.728;9.256;2023-08-20T08:55:13;97577.31;;;34.64;74.38
12178;BME280;6152;48.728;9.256;2023-08-20T08:57:39;97574.03;;;36.11;60.67
12178;BME280;6152;48.728;9.256;2023-08-20T09:00:06;97575.28;;;37.42;52.36
12178;BME280;6152;48.728;9.256;2023-08-20T09:02:32;97570.50;;;38.19;47.00
12178;BME280;6152;48.728;9.256;2023-08-20T09:04:58;97574.41;;;38.92;45.66
12178;BME280;6152;48.728;9.256;2023-08-20T09:07:25;97569.88;;;39.60;42.14
12178;BME280;6152;48.728;9.256;2023-08-20T09:09:56;97561.13;;;40.30;41.13
12178;BME280;6152;48.728;9.256;2023-08-20T09:12:22;97564.72;;;41.65;37.33
12178;BME280;6152;48.728;9.256;2023-08-20T09:14:50;97562.22;;;41.74;36.13
12178;BME280;6152;48.728;9.256;2023-08-20T09:17:17;97568.88;;;41.58;35.32
12178;BME280;6152;48.728;9.256;2023-08-20T09:19:45;97567.38;;;41.06;34.84
12178;BME280;6152;48.728;9.256;2023-08-20T09:22:12;97567.25;;;41.57;34.27
12178;BME280;6152;48.728;9.256;2023-08-20T09:24:41;97567.25;;;41.57;34.44
12178;BME280;6152;48.728;9.256;2023-08-20T09:27:14;97568.00;;;42.21;33.61
12178;BME280;6152;48.728;9.256;2023-08-20T09:29:48;97563.06;;;42.18;32.90
12178;BME280;6152;48.728;9.256;2023-08-20T09:32:24;97567.34;;;42.35;32.38
12178;BME280;6152;48.728;9.256;2023-08-20T09:34:52;97569.16;;;42.83;30.95
12178;BME280;6152;48.728;9.256;2023-08-20T09:37:23;97560.56;;;41.83;31.76
12178;BME280;6152;48.728;9.256;2023-08-20T09:39:50;97563.09;;;42.23;32.83
12178;BME280;6152;48.728;9.256;2023-08-20T09:42:16;97563.84;;;43.20;31.77
12178;BME280;6152;48.728;9.256;2023-08-20T09:44:44;97561.66;;;44.45;30.02
12178;BME280;6152;48.728;9.256;2023-08-20T09:47:15;97566.19;;;45.19;28.45
12178;BME280;6152;48.728;9.256;2023-08-20T09:49:47;97555.09;;;45.65;28.01
12178;BME280;6152;48.728;9.256;2023-08-20T09:52:39;97558.84;;;46.54;26.15
12178;BME280;6152;48.728;9.256;2023-08-20T09:55:20;97556.88;;;47.39;25.41
12178;BME280;6152;48.728;9.256;2023-08-20T09:57:48;97561.41;;;47.26;24.36
12178;BME280;6152;48.728;9.256;2023-08-20T10:00:14;97558.88;;;47.47;24.29
12178;BME280;6152;48.728;9.256;2023-08-20T10:02:43;97555.78;;;47.17;24.23
12178;BME280;6152;48.728;9.256;2023-08-20T10:05:11;97554.75;;;47.84;24.17
12178;BME280;6152;48.728;9.256;2023-08-20T10:07:38;97552.28;;;47.74;23.39
12178;BME280;6152;48.728;9.256;2023-08-20T10:10:09;97552.56;;;47.55;23.84
12178;BME280;6152;48.728;9.256;2023-08-20T10:12:39;97547.75;;;46.68;24.15
12178;BME280;6152;48.728;9.256;2023-08-20T10:15:07;97549.47;;;47.17;23.84
12178;BME280;6152;48.728;9.256;2023-08-20T10:17:34;97544.41;;;47.10;23.93
12178;BME280;6152;48.728;9.256;2023-08-20T10:20:03;97544.75;;;47.09;24.27
12178;BME280;6152;48.728;9.256;2023-08-20T10:22:37;97549.38;;;47.87;23.63
12178;BME280;6152;48.728;9.256;2023-08-20T10:25:26;97545.34;;;48.53;23.29
12178;BME280;6152;48.728;9.256;2023-08-20T10:27:53;97547.13;;;48.75;22.85
12178;BME280;6152;48.728;9.256;2023-08-20T10:30:26;97540.03;;;49.12;22.43
12178;BME280;6152;48.728;9.256;2023-08-20T10:32:54;97536.78;;;48.29;22.87
12178;BME280;6152;48.728;9.256;2023-08-20T10:36:08;97539.09;;;47.62;23.49
12178;BME280;6152;48.728;9.256;2023-08-20T10:38:17;97541.00;;;48.35;22.45
12178;BME280;6152;48.728;9.256;2023-08-20T10:40:56;97547.97;;;48.16;22.83
12178;BME280;6152;48.728;9.256;2023-08-20T10:43:34;97548.94;;;48.71;22.46
12178;BME280;6152;48.728;9.256;2023-08-20T10:48:41;97544.75;;;47.17;22.91
12178;BME280;6152;48.728;9.256;2023-08-20T10:51:12;97537.25;;;48.31;22.22
12178;BME280;6152;48.728;9.256;2023-08-20T10:53:39;97538.03;;;47.24;23.38
12178;BME280;6152;48.728;9.256;2023-08-20T10:56:15;97545.03;;;47.38;22.98
12178;BME280;6152;48.728;9.256;2023-08-20T10:58:43;97542.41;;;47.81;22.50
12178;BME280;6152;48.728;9.256;2023-08-20T11:01:23;97547.16;;;48.67;20.98
12178;BME280;6152;48.728;9.256;2023-08-20T11:03:50;97539.84;;;48.28;21.53
12178;BME280;6152;48.728;9.256;2023-08-20T11:06:18;97549.97;;;47.58;22.22
12178;BME280;6152;48.728;9.256;2023-08-20T11:08:45;97535.41;;;47.19;22.86
12178;BME280;6152;48.728;9.256;2023-08-20T11:11:12;97537.13;;;47.14;22.40
12178;BME280;6152;48.728;9.256;2023-08-20T11:13:38;97520.72;;;46.48;23.06
12178;BME280;6152;48.728;9.256;2023-08-20T11:16:06;97524.72;;;46.64;23.23
12178;BME280;6152;48.728;9.256;2023-08-20T11:18:34;97532.38;;;47.37;23.06
12178;BME280;6152;48.728;9.256;2023-08-20T11:21:00;97527.50;;;47.99;22.44
12178;BME280;6152;48.728;9.256;2023-08-20T11:23:27;97528.91;;;47.71;22.15
12178;BME280;6152;48.728;9.256;2023-08-20T11:25:53;97521.66;;;48.44;21.30
12178;BME280;6152;48.728;9.256;2023-08-20T11:28:20;97518.66;;;48.75;20.67
12178;BME280;6152;48.728;9.256;2023-08-20T11:30:47;97524.81;;;48.80;21.18
12178;BME280;6152;48.728;9.256;2023-08-20T11:33:13;97514.81;;;48.16;21.58
12178;BME280;6152;48.728;9.256;2023-08-20T11:35:40;97521.97;;;47.99;21.71
12178;BME280;6152;48.728;9.256;2023-08-20T11:38:07;97513.66;;;48.25;20.89
12178;BME280;6152;48.728;9.256;2023-08-20T11:40:33;97528.41;;;47.86;21.10
12178;BME280;6152;48.728;9.256;2023-08-20T11:43:00;97520.84;;;47.27;21.91
12178;BME280;6152;48.728;9.256;2023-08-20T11:45:26;97523.38;;;46.84;22.55
12178;BME280;6152;48.728;9.256;2023-08-20T11:47:56;97511.22;;;46.62;22.61
12178;BME280;6152;48.728;9.256;2023-08-20T11:50:26;97527.59;;;47.60;22.83
12178;BME280;6152;48.728;9.256;2023-08-20T11:52:53;97521.28;;;47.85;22.00
12178;BME280;6152;48.728;9.256;2023-08-20T11:55:25;97517.41;;;48.38;21.10
12178;BME280;6152;48.728;9.256;2023-08-20T11:57:52;97514.13;;;48.53;21.12
12178;BME280;6152;48.728;9.256;2023-08-20T12:00:29;97517.22;;;49.53;20.50
12178;BME280;6152;48.728;9.256;2023-08-20T12:02:57;97516.44;;;49.73;19.80
12178;BME280;6152;48.728;9.256;2023-08-20T12:05:27;97508.00;;;49.90;19.62
12178;BME280;6152;48.728;9.256;2023-08-20T12:07:58;97508.75;;;49.99;19.92
12178;BME280;6152;48.728;9.256;2023-08-20T12:10:26;97509.09;;;50.39;19.17
12178;BME280;6152;48.728;9.256;2023-08-20T12:12:52;97504.78;;;49.88;19.88
12178;BME280;6152;48.728;9.256;2023-08-20T12:15:19;97501.59;;;48.73;20.71
12178;BME280;6152;48.728;9.256;2023-08-20T12:17:57;97492.22;;;48.22;20.85
12178;BME280;6152;48.728;9.256;2023-08-20T12:20:26;97495.00;;;48.13;22.12
12178;BME280;6152;48.728;9.256;2023-08-20T12:22:52;97491.09;;;46.84;22.21
12178;BME280;6152;48.728;9.256;2023-08-20T12:25:18;97484.25;;;46.29;23.27
12178;BME280;6152;48.728;9.256;2023-08-20T12:27:45;97485.22;;;45.39;23.33
12178;BME280;6152;48.728;9.256;2023-08-20T12:30:11;97483.22;;;44.57;24.65
12178;BME280;6152;48.728;9.256;2023-08-20T12:32:38;97483.59;;;42.91;27.13
12178;BME280;6152;48.728;9.256;2023-08-20T12:35:04;97486.72;;;41.78;28.21
12178;BME280;6152;48.728;9.256;2023-08-20T12:37:31;97480.78;;;40.97;29.01
12178;BME280;6152;48.728;9.256;2023-08-20T12:39:57;97485.47;;;39.85;30.92
12178;BME280;6152;48.728;9.256;2023-08-20T12:42:23;97483.47;;;38.93;32.72
12178;BME280;6152;48.728;9.256;2023-08-20T12:44:49;97481.22;;;38.11;34.78
12178;BME280;6152;48.728;9.256;2023-08-20T12:47:15;97475.28;;;37.61;34.91
12178;BME280;6152;48.728;9.256;2023-08-20T12:49:41;97473.22;;;37.03;35.42
12178;BME280;6152;48.728;9.256;2023-08-20T12:52:07;97476.25;;;36.68;37.14
12178;BME280;6152;48.728;9.256;2023-08-20T12:54:34;97472.31;;;36.25;38.11
12178;BME280;6152;48.728;9.256;2023-08-20T12:57:00;97474.91;;;35.87;38.49
12178;BME280;6152;48.728;9.256;2023-08-20T12:59:26;97465.03;;;35.24;39.97
12178;BME280;6152;48.728;9.256;2023-08-20T13:01:52;97474.72;;;35.20;42.28
12178;BME280;6152;48.728;9.256;2023-08-20T13:04:18;97466.03;;;34.95;42.14
12178;BME280;6152;48.728;9.256;2023-08-20T13:06:45;97463.91;;;34.97;44.14
12178;BME280;6152;48.728;9.256;2023-08-20T13:09:12;97463.31;;;34.95;43.84
12178;BME280;6152;48.728;9.256;2023-08-20T13:11:42;97467.22;;;34.99;44.44
12178;BME280;6152;48.728;9.256;2023-08-20T13:14:10;97453.81;;;34.81;43.06
12178;BME280;6152;48.728;9.256;2023-08-20T13:16:37;97465.69;;;34.57;44.85